x

Lake St Clair (45147) Wave Buoy

11:00pm - Tue 29th Jul 2014 All times are CDT. -5 hours from GMT.

  • Sig Wave height 1.0ft
  • Peak Period 2s
  • Wind
    16mph, 20mph gusts
  • Air Temp 66°f
  • Sea Pressure 1013.7mb
  • Lake St Clair
  • Lake St Clair

More Historic Weather Station data

Upgrade to MSW Pro to gain access to the past 30 days of data for over 8000 Wavebouys and Weather Stations around the globe.

Join Pro

Comparision Forecast

View Surf forecast
   
Tue 07/29 11:00pm 1ft 2s 16 20 mph 1013.7mb 66f
10:00pm 0.7ft 2s 11 13 mph 1014.1mb 68f
9:00pm 0.7ft 2s 9 11 mph 1013.9mb 67f
8:00pm 1ft 2s 9 11 mph 1013.8mb 68f
7:00pm 1.3ft 3s 13 18 mph 1013.8mb 67f
6:00pm 1ft 3s 13 18 mph 1013.5mb 70f
5:00pm 1ft 3s 11 13 mph 1013.6mb 70f
4:00pm 1.3ft 2s 13 18 mph 1013.8mb 69f
3:00pm 1.3ft 3s 11 16 mph 1014.1mb 69f
2:00pm 1ft  -  13 16 mph 1014.3mb 68f
1:00pm 1ft 2s 11 13 mph 1014.7mb 67f
12:00pm 0.7ft  -  11 13 mph 1015.2mb 66f
11:00am 0.7ft 2s 7 11 mph 1015.6mb 64f
10:00am 0.7ft 2s 9 11 mph 1015.6mb 63f
9:00am 1ft 3s 9 13 mph 1015.4mb 62f
8:00am 1.3ft 3s 11 13 mph 1015.4mb 61f
7:00am 1.3ft 3s 16 18 mph 1015mb 60f
6:00am 1ft 3s 9 13 mph 1014.5mb 61f
5:00am  -   -  13
mph
- -
4:00am 1.3ft 3s 13 16 mph 1014.5mb 61f
3:00am 1.3ft 3s 11 16 mph 1014.3mb 61f
2:00am 1.6ft 3s 16 20 mph 1014.5mb 61f
1:00am 1.3ft  -  13 16 mph 1014.8mb 61f
12:00am 1.3ft  -  13 18 mph 1014.7mb 61f
Mon 07/28 11:00pm 1.3ft 3s 13 16 mph 1014.9mb 61f
10:00pm 1.6ft 3s 16 20 mph 1015.5mb 61f
9:00pm 1.6ft  -  18 22 mph 1014.9mb 61f
7:00pm  -   -  18
mph
- -
6:00pm 1.6ft  -  18 20 mph 1014mb 63f
5:00pm 1.6ft  -  18 22 mph 1013.7mb 62f
4:00pm 1.3ft  -  13 18 mph 1013.4mb 63f
3:00pm 1.6ft  -  16 20 mph 1013.2mb 63f
1:00pm  -   -  20
mph
- 62f
12:00pm 2ft  -  20 25 mph 1012.3mb 63f
11:00am 2.5ft  -  22 27 mph 1011.5mb 63f
10:00am 2.5ft  -  22
mph
1010.4mb 64f
9:00am 2.5ft 3s 22 29 mph 1009.6mb 64f
7:00am 2.5ft  -  27 31 mph 1007.5mb 64f
4:00am 2ft 3s 22 29 mph 1004.3mb 65f
3:00am 1.6ft  -  18 22 mph 1004.2mb 65f
2:00am 2ft  -  20 25 mph 1004.5mb 65f
1:00am 1.6ft  -  18 20 mph 1004.8mb 64f
12:00am 2ft 3s 18 20 mph 1005.2mb 64f
Sun 07/27 10:00pm 1ft 2s 9
mph
1003.6mb 66f
9:00pm 1.6ft 3s 11 13 mph 1003.2mb 66f
8:00pm 2.5ft 4s 22 31 mph 1003.1mb 66f
7:00pm 2.5ft  -  27 34 mph 1003.4mb 67f
6:00pm 1.6ft 3s 9 11 mph 1002.4mb 69f
5:00pm  -   -  4
mph
- 74f
4:00pm 0.3ft 2s 9
mph
1001.8mb 74f
3:00pm 0.3ft 2s 9
mph
1002.8mb 74f
2:00pm 0.3ft 2s 7 9 mph 1004.1mb 73f
1:00pm 0.7ft 2s 9
mph
1005.9mb 72f
12:00pm 0.7ft 2s 2 7 mph 1005.9mb 74f
11:00am 0.7ft 2s 4 7 mph 1006.4mb 73f
10:00am 0.7ft 2s 9
mph
1007.3mb 72f
9:00am 1ft 2s 9 13 mph 1007.4mb 70f
8:00am 0.7ft  -  13 16 mph 1007.2mb 69f
7:00am 0.3ft  -   -  2 mph 1006.8mb 73f
6:00am 0.7ft 2s 2
mph
1006.6mb 69f
5:00am 0.7ft 2s 4
mph
1007.1mb 70f
4:00am 1ft 2s 9 11 mph 1007.6mb 71f
3:00am 1ft 2s 9 11 mph 1007.7mb 71f
2:00am 1ft 2s 9 11 mph 1007.6mb 71f
1:00am 1ft 2s 11
mph
1007.6mb 72f
12:00am 1ft 2s 11 13 mph 1007.6mb 72f
Sat 07/26 11:00pm 0.7ft 2s 13 18 mph 1007.5mb 73f
10:00pm 0.7ft 2s 9
mph
1007.6mb 72f
9:00pm 1ft 3s 9 11 mph 1008.3mb 73f
8:00pm 1ft 2s 13 16 mph 1008.3mb 73f
7:00pm 1ft 2s 9 11 mph 1008mb 74f
6:00pm 1.3ft 3s 11 13 mph 1008.5mb 74f
5:00pm 1.3ft 3s 11 13 mph 1008.7mb 74f
4:00pm 1.3ft 3s 11 13 mph 1008.9mb 74f
3:00pm 1ft  -  13 16 mph 1008.9mb 74f
2:00pm 0.3ft  -  7 9 mph 1010.2mb 73f
1:00pm 0.3ft  -  7 9 mph 1011.1mb 71f
12:00pm 0.3ft 2s 7
mph
1011.9mb 71f
11:00am 0.7ft  -  2 4 mph 1012mb 70f
10:00am 0.3ft 2s 7
mph
1012.7mb 70f
9:00am 0.7ft  -  4 7 mph 1013.2mb 69f
8:00am 0.7ft  -  4 9 mph 1012.9mb 68f